Time;durP1;ratioP1;P1;durP2;ratioP2;P2;SDS_P1;SDS_P2;PMS_P1;PMS_P2;Temp;Humidity;BMP_temperature;BMP_pressure;BME280_temperature;BME280_humidity;BME280_pressure;Samples;Min_cycle;Max_cycle;Signal;HPM_P1;HPM_P2
2022/06/24 00:01:59;;;;;;;14.45;9.60;;;24.20;73.00;;;;;;5094460;28;20024;-68
2022/06/24 00:04:26;;;;;;;13.70;10.27;;;24.10;73.50;;;;;;5094511;28;20047;-69
2022/06/24 00:06:53;;;;;;;15.13;10.07;;;24.20;73.70;;;;;;5094396;28;20025;-69
2022/06/24 00:09:19;;;;;;;15.75;10.35;;;24.20;73.60;;;;;;5094233;28;20044;-69
2022/06/24 00:11:59;;;;;;;16.70;10.70;;;24.30;73.50;;;;;;5094194;28;20021;-69
2022/06/24 00:14:25;;;;;;;12.88;10.13;;;24.30;73.40;;;;;;5094264;28;20024;-69
2022/06/24 00:16:55;;;;;;;15.57;10.82;;;24.30;73.20;;;;;;5094171;28;20024;-69
2022/06/24 00:19:22;;;;;;;15.63;10.60;;;24.30;73.10;;;;;;5094125;28;20024;-69
2022/06/24 00:22:07;;;;;;;16.63;10.88;;;24.30;73.10;;;;;;5094098;28;20051;-69
2022/06/24 00:24:35;;;;;;;16.48;10.60;;;24.30;73.00;;;;;;5094055;28;20098;-69
2022/06/24 00:27:01;;;;;;;15.60;10.95;;;24.20;73.00;;;;;;5093980;28;20028;-69
2022/06/24 00:29:32;;;;;;;16.65;12.15;;;24.00;73.60;;;;;;5093869;28;20025;-68
2022/06/24 00:32:03;;;;;;;13.73;9.35;;;23.70;75.00;;;;;;5093987;28;20016;-68
2022/06/24 00:34:29;;;;;;;13.95;8.25;;;23.10;75.50;;;;;;5093872;28;20025;-68
2022/06/24 00:36:55;;;;;;;11.50;7.47;;;22.70;76.60;;;;;;5092844;28;20027;-68
2022/06/24 00:39:31;;;;;;;16.15;8.70;;;22.40;77.70;;;;;;5093952;28;20021;-68
2022/06/24 00:41:58;;;;;;;17.88;8.98;;;22.40;78.90;;;;;;5093885;28;20063;-68
2022/06/24 00:44:27;;;;;;;14.40;8.38;;;22.20;79.70;;;;;;5093793;28;20055;-68
2022/06/24 00:46:59;;;;;;;12.20;8.45;;;22.10;80.60;;;;;;5092689;28;20043;-68
2022/06/24 00:49:27;;;;;;;18.25;9.15;;;21.90;82.10;;;;;;5093690;28;20076;-68
2022/06/24 00:51:53;;;;;;;15.82;9.07;;;21.90;82.70;;;;;;5093655;28;20029;-68
2022/06/24 00:54:23;;;;;;;12.45;7.90;;;21.80;83.40;;;;;;5093639;28;20025;-68
2022/06/24 00:56:55;;;;;;;16.75;8.57;;;21.80;83.60;;;;;;5093613;28;20020;-68
2022/06/24 00:59:21;;;;;;;12.70;8.38;;;21.90;83.50;;;;;;5093248;28;20024;-69
2022/06/24 01:01:49;;;;;;;15.13;8.30;;;21.90;82.90;;;;;;5093543;28;20091;-69
2022/06/24 01:04:15;;;;;;;11.90;8.15;;;21.90;82.60;;;;;;5093512;28;20052;-69
2022/06/24 01:06:43;;;;;;;14.00;8.38;;;21.90;82.40;;;;;;5093462;28;20056;-68
2022/06/24 01:09:10;;;;;;;12.43;8.55;;;21.80;82.40;;;;;;5093374;28;20033;-68
2022/06/24 01:11:37;;;;;;;14.10;9.40;;;21.80;82.30;;;;;;5093239;28;20021;-69
2022/06/24 01:14:03;;;;;;;14.35;9.68;;;21.80;82.10;;;;;;5093449;28;20062;-69
2022/06/24 01:16:30;;;;;;;14.25;10.77;;;21.90;82.20;;;;;;5093474;28;20032;-69
2022/06/24 01:18:58;;;;;;;14.98;10.77;;;22.00;82.20;;;;;;5093290;28;20028;-68
2022/06/24 01:21:34;;;;;;;16.08;11.70;;;22.10;82.00;;;;;;5092313;28;20040;-68
2022/06/24 01:24:12;;;;;;;18.10;12.13;;;22.20;81.90;;;;;;5093294;28;20084;-68
2022/06/24 01:26:42;;;;;;;16.42;11.32;;;22.20;81.70;;;;;;5093413;28;20036;-69
2022/06/24 01:29:08;;;;;;;13.98;11.10;;;22.20;81.60;;;;;;5092123;28;20024;-69
2022/06/24 01:31:35;;;;;;;12.20;9.07;;;22.20;81.00;;;;;;5093158;28;20043;-68
2022/06/24 01:34:01;;;;;;;10.68;8.00;;;22.20;80.60;;;;;;5093164;28;20076;-69
2022/06/24 01:36:27;;;;;;;10.65;7.13;;;22.20;80.10;;;;;;5093141;28;20025;-69
2022/06/24 01:38:53;;;;;;;8.05;5.85;;;22.10;79.40;;;;;;5093130;28;20036;-69
2022/06/24 01:41:19;;;;;;;5.15;3.45;;;22.10;79.10;;;;;;5092090;28;20023;-68
2022/06/24 01:43:44;;;;;;;4.18;3.30;;;22.00;78.00;;;;;;5093085;28;20024;-69
2022/06/24 01:46:13;;;;;;;3.70;2.65;;;21.90;77.40;;;;;;5092016;28;20059;-69
2022/06/24 01:48:39;;;;;;;3.58;2.58;;;21.80;77.10;;;;;;5092935;28;20056;-68
2022/06/24 01:51:07;;;;;;;4.97;2.58;;;21.80;77.40;;;;;;5093176;28;20024;-69
2022/06/24 01:53:32;;;;;;;4.78;2.90;;;21.80;77.20;;;;;;5092959;28;20021;-69
2022/06/24 01:55:58;;;;;;;3.80;2.80;;;21.80;77.10;;;;;;5093055;28;20032;-68
2022/06/24 01:58:24;;;;;;;2.63;2.20;;;21.80;77.10;;;;;;5092915;28;20041;-69
2022/06/24 02:00:50;;;;;;;4.20;2.25;;;21.80;77.10;;;;;;5092001;28;20032;-69
2022/06/24 02:03:16;;;;;;;3.08;2.00;;;21.80;76.70;;;;;;5092866;28;20050;-69
2022/06/24 02:05:43;;;;;;;3.05;2.47;;;21.80;76.60;;;;;;5092815;28;20028;-69
2022/06/24 02:08:08;;;;;;;3.15;2.03;;;21.80;76.40;;;;;;5092746;28;20107;-69
2022/06/24 02:13:27;;;;;;;6.35;2.70;;;21.70;76.70;;;;;;5096623;28;20127;-69
2022/06/24 02:15:58;;;;;;;3.97;2.17;;;21.80;76.30;;;;;;5096789;28;20051;-68
2022/06/24 02:18:24;;;;;;;4.45;2.35;;;21.80;76.00;;;;;;5096648;28;20024;-69
2022/06/24 02:20:50;;;;;;;3.55;2.35;;;21.80;76.10;;;;;;5096516;28;20087;-69
2022/06/24 02:23:18;;;;;;;5.35;2.90;;;21.70;76.60;;;;;;5096489;28;20028;-69
2022/06/24 02:25:44;;;;;;;5.18;2.63;;;21.60;77.30;;;;;;5096440;28;20017;-69
2022/06/24 02:28:10;;;;;;;5.28;2.42;;;21.70;77.60;;;;;;5096275;28;20028;-69
2022/06/24 02:30:35;;;;;;;4.47;2.38;;;21.80;77.60;;;;;;5096312;28;20103;-69
2022/06/24 02:33:01;;;;;;;3.78;2.30;;;21.90;76.70;;;;;;5096335;28;20048;-68
2022/06/24 02:35:27;;;;;;;3.88;2.15;;;21.90;76.30;;;;;;5096241;28;20028;-69
2022/06/24 02:37:52;;;;;;;3.75;2.60;;;21.80;76.00;;;;;;5096188;28;20028;-69
2022/06/24 02:43:10;;;;;;;3.50;2.30;;;21.70;76.30;;;;;;5096258;28;20090;-69
2022/06/24 02:45:35;;;;;;;4.50;2.20;;;21.70;76.50;;;;;;5096129;28;20039;-69
2022/06/24 02:48:01;;;;;;;3.53;2.25;;;21.70;76.80;;;;;;5095976;28;20029;-69
2022/06/24 02:50:26;;;;;;;4.20;2.60;;;21.70;76.70;;;;;;5095954;28;20032;-69
2022/06/24 02:52:52;;;;;;;3.03;1.88;;;21.70;76.50;;;;;;5096073;28;20040;-69
2022/06/24 02:55:18;;;;;;;2.67;1.70;;;21.60;76.00;;;;;;5095899;28;20031;-69
2022/06/24 02:57:43;;;;;;;1.85;1.35;;;21.50;76.00;;;;;;5095843;28;20032;-69
2022/06/24 03:00:09;;;;;;;1.85;1.27;;;21.50;76.00;;;;;;5095949;28;20113;-68
2022/06/24 03:02:35;;;;;;;2.30;1.30;;;21.40;75.40;;;;;;5094978;28;20029;-68
2022/06/24 03:05:00;;;;;;;1.08;0.90;;;21.40;75.30;;;;;;5095736;28;20051;-68
2022/06/24 03:07:26;;;;;;;1.63;1.00;;;21.40;75.40;;;;;;5095619;28;20041;-69
2022/06/24 03:09:51;;;;;;;2.40;1.27;;;21.40;75.20;;;;;;5095655;28;20032;-68
2022/06/24 03:12:17;;;;;;;1.45;1.05;;;21.30;75.30;;;;;;5095410;28;20056;-69
2022/06/24 03:14:43;;;;;;;2.22;1.30;;;21.40;75.60;;;;;;5095543;28;20033;-68
2022/06/24 03:17:08;;;;;;;2.15;1.10;;;21.30;75.10;;;;;;5095509;28;20067;-68
2022/06/24 03:19:34;;;;;;;1.83;1.20;;;21.30;75.30;;;;;;5095440;28;20369;-68
2022/06/24 03:21:59;;;;;;;2.72;1.02;;;21.30;75.50;;;;;;5095126;28;20084;-69
2022/06/24 03:24:25;;;;;;;2.17;1.25;;;21.30;75.70;;;;;;5095339;28;20084;-68
2022/06/24 03:26:50;;;;;;;2.97;1.20;;;21.30;75.60;;;;;;5095275;28;20028;-69
2022/06/24 03:29:16;;;;;;;2.65;1.40;;;21.40;75.60;;;;;;5095142;28;20048;-69
2022/06/24 03:31:42;;;;;;;4.25;1.35;;;21.40;75.60;;;;;;5095317;28;20024;-68
2022/06/24 03:34:07;;;;;;;3.08;1.35;;;21.50;75.40;;;;;;5095276;28;20033;-68
2022/06/24 03:36:33;;;;;;;2.30;1.25;;;21.50;75.10;;;;;;5095246;28;20013;-68
2022/06/24 03:38:59;;;;;;;1.95;1.20;;;21.50;75.20;;;;;;5095047;28;20044;-69
2022/06/24 03:41:24;;;;;;;2.65;1.20;;;21.60;75.40;;;;;;5095023;28;20032;-69
2022/06/24 03:43:50;;;;;;;2.20;1.42;;;21.50;75.10;;;;;;5094963;28;20036;-69
2022/06/24 03:46:15;;;;;;;1.52;1.10;;;21.60;74.90;;;;;;5095025;28;20052;-69
2022/06/24 03:48:41;;;;;;;2.28;1.23;;;21.60;75.70;;;;;;5094929;28;20032;-68
2022/06/24 03:51:06;;;;;;;2.78;1.13;;;21.50;75.00;;;;;;5094784;28;20032;-69
2022/06/24 03:53:32;;;;;;;3.33;1.27;;;21.50;75.00;;;;;;5094761;28;20029;-69
2022/06/24 03:55:58;;;;;;;3.35;1.70;;;21.50;74.80;;;;;;5093830;28;20040;-69
2022/06/24 03:58:23;;;;;;;3.78;1.55;;;21.50;74.70;;;;;;5094647;28;20024;-69
2022/06/24 04:00:49;;;;;;;2.35;1.15;;;21.50;74.70;;;;;;5094613;28;20101;-69
2022/06/24 04:03:15;;;;;;;2.25;1.45;;;21.50;74.80;;;;;;5094529;28;20032;-69
2022/06/24 04:05:41;;;;;;;3.50;1.60;;;21.50;74.90;;;;;;5094515;28;20081;-69
2022/06/24 04:08:07;;;;;;;3.03;1.30;;;21.50;74.90;;;;;;5094397;28;20048;-69
2022/06/24 04:10:33;;;;;;;2.47;1.73;;;21.50;74.80;;;;;;5094418;28;20020;-69
2022/06/24 04:12:58;;;;;;;2.30;1.40;;;21.50;74.60;;;;;;5094191;28;20423;-69
2022/06/24 04:15:24;;;;;;;2.47;1.33;;;21.50;74.70;;;;;;5094324;28;20092;-69
2022/06/24 04:17:50;;;;;;;1.75;1.52;;;21.50;75.00;;;;;;5094268;28;20024;-69
2022/06/24 04:20:20;;;;;;;2.33;1.60;;;21.50;74.70;;;;;;5094194;28;20024;-69
2022/06/24 04:22:46;;;;;;;3.45;1.60;;;21.40;74.60;;;;;;5094160;28;20039;-69
2022/06/24 04:25:11;;;;;;;4.07;1.58;;;21.40;75.10;;;;;;5094141;28;20025;-69
2022/06/24 04:27:38;;;;;;;2.50;1.60;;;21.30;75.50;;;;;;5094131;28;20028;-69
2022/06/24 04:30:05;;;;;;;2.92;1.65;;;21.20;75.70;;;;;;5093932;28;20036;-69
2022/06/24 04:32:32;;;;;;;2.15;1.65;;;21.00;76.40;;;;;;5093962;28;20017;-69
2022/06/24 04:34:57;;;;;;;3.08;1.60;;;21.00;77.10;;;;;;5093276;28;20052;-69
2022/06/24 04:37:23;;;;;;;2.22;1.60;;;21.10;77.30;;;;;;5093885;28;20031;-69
2022/06/24 04:39:49;;;;;;;1.92;1.60;;;21.20;77.00;;;;;;5093839;28;20024;-69
2022/06/24 04:42:15;;;;;;;2.65;1.67;;;21.30;76.80;;;;;;5093836;28;20122;-69
2022/06/24 04:44:41;;;;;;;2.88;1.90;;;21.30;76.70;;;;;;5093744;28;20032;-69
2022/06/24 04:47:06;;;;;;;4.22;1.70;;;21.40;76.40;;;;;;5093720;28;20036;-69
2022/06/24 04:49:33;;;;;;;2.90;1.60;;;21.20;76.60;;;;;;5092625;28;20052;-69
2022/06/24 04:51:58;;;;;;;2.20;2.00;;;21.20;76.80;;;;;;5093683;28;20024;-69
2022/06/24 04:54:24;;;;;;;4.10;2.00;;;21.30;77.00;;;;;;5092591;28;20020;-69
2022/06/24 04:56:51;;;;;;;4.25;2.20;;;21.30;76.50;;;;;;5093611;28;20543;-69
2022/06/24 04:59:16;;;;;;;3.63;2.15;;;21.30;76.50;;;;;;5093558;28;20028;-69
2022/06/24 05:01:42;;;;;;;3.35;2.00;;;21.30;76.00;;;;;;5093526;28;20032;-69
2022/06/24 05:04:08;;;;;;;3.55;2.28;;;21.20;76.20;;;;;;5093475;28;20103;-69
2022/06/24 05:06:33;;;;;;;2.85;2.22;;;21.20;76.40;;;;;;5093472;28;20146;-69
2022/06/24 05:08:59;;;;;;;3.92;2.28;;;21.20;76.70;;;;;;5093370;28;20021;-69
2022/06/24 05:11:25;;;;;;;2.78;2.10;;;21.10;77.10;;;;;;5093395;28;20025;-69
2022/06/24 05:13:50;;;;;;;3.22;2.50;;;21.10;77.30;;;;;;5093224;28;20072;-69
2022/06/24 05:16:16;;;;;;;5.90;2.72;;;21.20;77.20;;;;;;5093361;28;20021;-69
2022/06/24 05:18:42;;;;;;;4.40;2.50;;;21.20;77.70;;;;;;5093330;28;20020;-69
2022/06/24 05:21:08;;;;;;;3.75;2.42;;;21.30;76.70;;;;;;5093282;28;20112;-69
2022/06/24 05:23:34;;;;;;;3.90;2.50;;;21.10;76.60;;;;;;5093283;28;20039;-69
2022/06/24 05:25:59;;;;;;;3.80;2.80;;;21.00;77.30;;;;;;5093237;28;20122;-69
2022/06/24 05:28:25;;;;;;;3.72;2.80;;;20.80;78.00;;;;;;5093103;28;20025;-69
2022/06/24 05:30:57;;;;;;;3.70;2.70;;;20.70;78.40;;;;;;5093364;28;20035;-69
2022/06/24 05:33:24;;;;;;;5.80;3.22;;;20.70;78.80;;;;;;5093216;28;20126;-69
2022/06/24 05:35:54;;;;;;;4.65;3.22;;;20.60;79.80;;;;;;5093192;28;20095;-69
2022/06/24 05:38:21;;;;;;;5.95;3.60;;;20.60;79.30;;;;;;5093225;28;20055;-69
2022/06/24 05:40:49;;;;;;;5.85;3.97;;;20.50;80.10;;;;;;5093121;28;20032;-69
2022/06/24 05:43:15;;;;;;;5.03;4.13;;;20.30;80.70;;;;;;5093098;28;20415;-69
2022/06/24 05:45:41;;;;;;;6.18;4.38;;;20.20;81.70;;;;;;5095045;28;20028;-69
2022/06/24 05:48:07;;;;;;;6.22;4.57;;;20.00;82.50;;;;;;5096997;28;20047;-69
2022/06/24 05:50:36;;;;;;;6.95;4.28;;;20.00;82.50;;;;;;5097096;28;20021;-69
2022/06/24 05:55:46;;;;;;;6.15;4.63;;;20.10;82.30;;;;;;5097139;28;20078;-69
2022/06/24 05:58:11;;;;;;;6.45;5.05;;;20.20;82.10;;;;;;5096955;28;20025;-69
2022/06/24 06:00:37;;;;;;;5.80;4.85;;;20.20;82.10;;;;;;5096847;28;20468;-69
2022/06/24 06:03:02;;;;;;;6.68;5.43;;;20.20;81.90;;;;;;5096843;28;20078;-69
2022/06/24 06:05:29;;;;;;;5.60;4.95;;;20.20;81.80;;;;;;5096761;28;20092;-69
2022/06/24 06:07:54;;;;;;;7.68;5.43;;;20.30;81.70;;;;;;5096644;28;20020;-69
2022/06/24 06:10:20;;;;;;;6.70;5.18;;;20.20;81.90;;;;;;5095655;28;20097;-69
2022/06/24 06:12:46;;;;;;;7.25;5.68;;;20.30;81.70;;;;;;5096480;28;20053;-70
2022/06/24 06:15:11;;;;;;;7.45;5.15;;;20.40;81.50;;;;;;5096708;28;20051;-69
2022/06/24 06:17:37;;;;;;;7.28;5.60;;;20.30;81.90;;;;;;5096550;28;20068;-69
2022/06/24 06:20:03;;;;;;;7.20;5.38;;;20.20;82.60;;;;;;5096484;28;20044;-69
2022/06/24 06:22:29;;;;;;;8.30;5.28;;;20.10;83.20;;;;;;5096531;28;20028;-69
2022/06/24 06:24:55;;;;;;;7.95;4.85;;;20.00;83.50;;;;;;5095533;28;20027;-69
2022/06/24 06:27:21;;;;;;;8.13;5.28;;;20.00;83.40;;;;;;5096283;28;20025;-69
2022/06/24 06:29:47;;;;;;;7.75;5.78;;;20.10;83.60;;;;;;5096222;28;20024;-69
2022/06/24 06:32:13;;;;;;;6.90;5.60;;;20.10;83.20;;;;;;5096263;28;20032;-69
2022/06/24 06:34:39;;;;;;;9.38;5.70;;;20.10;83.40;;;;;;5096267;28;20088;-69
2022/06/24 06:37:04;;;;;;;8.70;5.70;;;20.10;83.80;;;;;;5096186;28;20028;-69
2022/06/24 06:39:30;;;;;;;7.28;5.93;;;20.00;84.00;;;;;;5096140;28;20039;-69
2022/06/24 06:41:56;;;;;;;7.70;6.10;;;20.00;83.80;;;;;;5096135;28;20020;-69
2022/06/24 06:44:21;;;;;;;8.52;6.20;;;20.00;84.40;;;;;;5096070;28;20070;-69
2022/06/24 06:46:48;;;;;;;9.38;6.20;;;20.00;84.40;;;;;;5095993;28;20068;-69
2022/06/24 06:49:13;;;;;;;8.85;6.15;;;20.00;84.60;;;;;;5095864;28;20062;-69
2022/06/24 06:51:39;;;;;;;8.63;6.15;;;20.00;84.50;;;;;;5095897;28;20437;-69
2022/06/24 06:54:05;;;;;;;14.20;6.35;;;20.00;84.30;;;;;;5095877;28;20021;-69
2022/06/24 06:56:30;;;;;;;10.77;6.47;;;20.00;84.30;;;;;;5095178;28;20521;-69
2022/06/24 06:58:56;;;;;;;7.28;6.13;;;20.10;84.20;;;;;;5095766;28;20017;-69
2022/06/24 07:01:21;;;;;;;10.77;6.75;;;20.20;84.20;;;;;;5095741;28;20060;-69
2022/06/24 07:03:47;;;;;;;10.02;6.47;;;20.20;84.00;;;;;;5095672;28;20037;-69
2022/06/24 07:06:13;;;;;;;8.10;6.65;;;20.10;84.10;;;;;;5095669;28;20033;-69
2022/06/24 07:08:38;;;;;;;9.30;6.25;;;20.10;83.90;;;;;;5095540;28;20040;-69
2022/06/24 07:11:04;;;;;;;7.88;6.43;;;20.10;84.00;;;;;;5095570;28;20032;-69
2022/06/24 07:13:30;;;;;;;10.15;7.05;;;20.20;84.00;;;;;;5095254;28;20051;-69
2022/06/24 07:15:56;;;;;;;9.20;6.82;;;20.20;83.80;;;;;;5095440;28;20029;-69
2022/06/24 07:18:22;;;;;;;7.72;6.43;;;20.20;83.80;;;;;;5095418;28;20093;-69
2022/06/24 07:20:48;;;;;;;8.05;6.57;;;20.30;83.80;;;;;;5095373;28;20040;-69
2022/06/24 07:23:14;;;;;;;8.70;6.63;;;20.40;83.60;;;;;;5095328;28;20044;-69
2022/06/24 07:25:39;;;;;;;8.40;6.65;;;20.40;83.50;;;;;;5095296;28;20036;-69
2022/06/24 07:28:05;;;;;;;7.90;6.28;;;20.50;83.10;;;;;;5095112;28;20031;-69
2022/06/24 07:30:31;;;;;;;12.05;6.53;;;20.50;83.10;;;;;;5095187;28;20021;-69
2022/06/24 07:32:57;;;;;;;9.80;6.97;;;20.50;83.00;;;;;;5095149;28;20025;-69
2022/06/24 07:35:23;;;;;;;10.80;7.13;;;20.50;82.70;;;;;;5095126;28;20070;-69
2022/06/24 07:37:49;;;;;;;10.38;7.72;;;20.60;82.70;;;;;;5095076;28;20031;-69
2022/06/24 07:40:15;;;;;;;9.32;7.35;;;20.60;82.80;;;;;;5095050;28;20102;-69
2022/06/24 07:42:42;;;;;;;10.63;7.80;;;20.60;83.00;;;;;;5094948;28;20062;-69
2022/06/24 07:45:08;;;;;;;11.05;7.93;;;20.60;83.10;;;;;;5094950;28;20059;-69
2022/06/24 07:47:35;;;;;;;12.43;8.25;;;20.50;83.30;;;;;;5094831;28;20044;-69
2022/06/24 07:50:02;;;;;;;10.05;7.90;;;20.50;83.60;;;;;;5094961;28;20020;-69
2022/06/24 07:52:28;;;;;;;11.25;7.53;;;20.40;83.70;;;;;;5093820;28;20025;-69
2022/06/24 07:56:56;;;;;;;9.98;7.55;;;20.40;84.00;;;;;;5094766;28;20060;-69
2022/06/24 07:57:39;;;;;;;10.40;8.38;;;20.40;83.90;;;;;;5094686;28;20040;-69
2022/06/24 08:00:05;;;;;;;12.65;8.88;;;20.40;83.60;;;;;;5094689;28;20032;-69
2022/06/24 08:02:31;;;;;;;12.68;9.05;;;20.40;83.90;;;;;;5094602;28;20025;-69
2022/06/24 08:04:57;;;;;;;12.65;9.13;;;20.30;84.30;;;;;;5094563;28;20059;-69
2022/06/24 08:07:22;;;;;;;11.93;8.90;;;20.30;84.40;;;;;;5094394;28;20055;-69
2022/06/24 08:09:48;;;;;;;10.95;8.60;;;20.20;85.00;;;;;;5093436;28;20033;-69
2022/06/24 08:12:13;;;;;;;13.13;8.35;;;20.20;85.20;;;;;;5094252;28;20048;-69
2022/06/24 08:14:39;;;;;;;9.35;7.40;;;20.10;84.80;;;;;;5094407;28;20025;-69
2022/06/24 08:17:04;;;;;;;12.35;7.47;;;20.10;84.90;;;;;;5094334;28;20029;-69
2022/06/24 08:19:30;;;;;;;8.73;6.68;;;20.20;85.00;;;;;;5094261;28;20029;-69
2022/06/24 08:21:56;;;;;;;8.65;6.40;;;20.20;85.00;;;;;;5094234;28;20098;-69
2022/06/24 08:24:21;;;;;;;8.27;6.15;;;20.10;85.30;;;;;;5094184;28;20033;-69
2022/06/24 08:26:47;;;;;;;8.95;6.80;;;20.10;85.40;;;;;;5094286;28;20041;-69
2022/06/24 08:29:25;;;;;;;10.15;7.00;;;20.20;85.40;;;;;;5116618;27;20137;-69
2022/06/24 08:31:51;;;;;;;9.85;6.85;;;20.40;85.60;;;;;;5093013;28;20036;-67
2022/06/24 08:34:17;;;;;;;11.68;6.25;;;20.50;85.10;;;;;;5110904;28;20032;-69
2022/06/24 08:36:43;;;;;;;8.98;7.00;;;20.60;84.60;;;;;;5110868;28;20028;-70
2022/06/24 08:39:08;;;;;;;9.85;7.63;;;20.60;84.50;;;;;;5109816;28;20028;-69
2022/06/24 08:41:34;;;;;;;13.32;8.60;;;20.70;84.50;;;;;;5110748;28;20471;-69
2022/06/24 08:44:00;;;;;;;11.00;8.68;;;20.70;84.20;;;;;;5110675;28;20156;-69
2022/06/24 08:46:25;;;;;;;11.60;9.43;;;20.70;85.00;;;;;;5110691;28;20051;-69
2022/06/24 08:48:56;;;;;;;14.52;11.60;;;20.70;85.20;;;;;;5110514;28;20036;-70
2022/06/24 08:51:22;;;;;;;13.48;10.77;;;20.60;85.90;;;;;;5110603;28;20021;-69
2022/06/24 08:53:48;;;;;;;15.60;11.20;;;20.70;86.40;;;;;;5110511;28;20092;-69
2022/06/24 08:56:14;;;;;;;14.20;10.13;;;20.60;86.60;;;;;;5110462;28;20025;-70
2022/06/24 08:58:40;;;;;;;13.45;10.63;;;20.70;86.20;;;;;;5110407;28;20090;-69
2022/06/24 09:01:06;;;;;;;12.50;10.55;;;20.80;85.90;;;;;;5110329;28;20032;-69
2022/06/24 09:03:32;;;;;;;13.38;10.15;;;20.80;85.90;;;;;;5110338;28;20095;-69
2022/06/24 09:05:57;;;;;;;14.38;11.10;;;20.90;85.80;;;;;;5110210;28;20039;-70
2022/06/24 09:08:32;;;;;;;12.65;11.13;;;20.90;85.90;;;;;;5110098;28;20028;-67
2022/06/24 09:11:06;;;;;;;13.15;10.65;;;20.90;85.50;;;;;;5110220;28;20031;-69
2022/06/24 09:13:42;;;;;;;14.98;11.60;;;20.90;85.20;;;;;;5110169;28;20118;-67
2022/06/24 09:16:08;;;;;;;16.17;12.68;;;20.90;85.50;;;;;;5110101;28;20035;-70
2022/06/24 09:18:34;;;;;;;15.88;12.45;;;20.90;85.40;;;;;;5110024;28;20029;-70
2022/06/24 09:20:59;;;;;;;14.95;12.23;;;20.90;85.40;;;;;;5109951;28;20054;-67
2022/06/24 09:23:25;;;;;;;18.30;12.93;;;21.00;85.20;;;;;;5109915;28;20039;-67
2022/06/24 09:25:51;;;;;;;15.75;13.25;;;21.10;85.30;;;;;;5109856;28;20080;-67
2022/06/24 09:28:28;;;;;;;16.95;12.63;;;21.10;85.00;;;;;;5120693;28;20194;-69
2022/06/24 09:31:02;;;;;;;15.70;12.82;;;21.20;84.40;;;;;;5130246;28;20455;-70
2022/06/24 09:33:34;;;;;;;16.35;13.15;;;21.20;84.80;;;;;;5130114;28;20088;-70
2022/06/24 09:36:01;;;;;;;18.17;13.32;;;21.20;84.80;;;;;;5112112;28;20016;-70
2022/06/24 09:38:27;;;;;;;17.55;13.65;;;21.10;84.80;;;;;;5129548;28;20028;-70
2022/06/24 09:41:05;;;;;;;20.60;14.63;;;21.20;84.70;;;;;;5115868;28;20029;-68
2022/06/24 09:43:31;;;;;;;24.83;18.10;;;21.20;84.80;;;;;;5116311;28;20038;-69
2022/06/24 09:45:58;;;;;;;27.52;19.92;;;21.10;84.60;;;;;;5116434;28;20091;-67
2022/06/24 09:48:28;;;;;;;26.65;19.52;;;21.20;85.60;;;;;;5116122;28;20035;-69
2022/06/24 09:50:56;;;;;;;29.20;21.00;;;21.20;85.00;;;;;;5116350;28;20088;-69
2022/06/24 09:53:26;;;;;;;30.33;21.50;;;21.30;85.30;;;;;;5116272;28;20047;-68
2022/06/24 09:55:53;;;;;;;27.35;20.40;;;21.30;85.60;;;;;;5116155;28;20020;-69
2022/06/24 09:58:19;;;;;;;26.13;19.27;;;21.40;85.50;;;;;;5116017;28;20444;-69
2022/06/24 10:00:46;;;;;;;27.70;21.23;;;21.40;85.20;;;;;;5115990;28;20024;-70
2022/06/24 10:03:13;;;;;;;27.42;20.45;;;21.50;85.30;;;;;;5115937;28;20055;-70
2022/06/24 10:05:41;;;;;;;25.95;19.60;;;21.60;85.20;;;;;;5115846;28;20110;-69
2022/06/24 10:08:11;;;;;;;27.90;19.92;;;21.60;84.60;;;;;;5115737;28;20016;-70
2022/06/24 10:10:42;;;;;;;27.23;19.42;;;21.70;84.40;;;;;;5115830;28;20040;-70
2022/06/24 10:13:13;;;;;;;26.02;18.58;;;21.90;84.10;;;;;;5115835;28;20065;-70
2022/06/24 10:15:39;;;;;;;27.58;20.23;;;22.00;83.70;;;;;;5097910;28;20016;-70
2022/06/24 10:18:10;;;;;;;23.23;19.23;;;22.10;83.70;;;;;;5115650;28;20066;-70
2022/06/24 10:20:36;;;;;;;24.05;17.50;;;22.30;83.20;;;;;;5115615;28;20084;-70
2022/06/24 10:23:02;;;;;;;21.05;17.40;;;22.40;81.70;;;;;;5115568;28;20027;-70
2022/06/24 10:25:46;;;;;;;22.20;17.38;;;22.50;80.80;;;;;;5115481;28;20032;-69
2022/06/24 10:28:12;;;;;;;19.45;16.55;;;22.50;79.20;;;;;;5115113;28;20052;-69
2022/06/24 10:30:40;;;;;;;24.23;17.95;;;22.50;81.00;;;;;;5115401;28;20030;-69
2022/06/24 10:33:20;;;;;;;21.17;17.13;;;22.50;80.00;;;;;;5115341;28;20051;-69
2022/06/24 10:35:55;;;;;;;20.10;15.43;;;22.60;79.40;;;;;;5115297;28;20073;-70
2022/06/24 10:38:22;;;;;;;19.92;15.20;;;22.60;78.40;;;;;;5115231;28;20024;-67
2022/06/24 10:40:49;;;;;;;17.08;13.27;;;22.60;80.30;;;;;;5115117;28;20048;-67
2022/06/24 10:43:33;;;;;;;19.05;14.60;;;22.60;77.70;;;;;;5115179;28;20050;-67
2022/06/24 10:46:16;;;;;;;13.63;10.82;;;22.70;76.80;;;;;;5115078;28;20032;-69
2022/06/24 10:48:44;;;;;;;14.45;12.40;;;22.70;74.70;;;;;;5114965;28;20356;-70
2022/06/24 10:51:21;;;;;;;11.30;9.15;;;22.80;76.60;;;;;;5113976;28;20477;-69
2022/06/24 10:54:01;;;;;;;10.60;8.98;;;22.90;76.60;;;;;;5115038;28;20048;-70
2022/06/24 10:56:42;;;;;;;11.57;9.90;;;23.00;75.80;;;;;;5114891;28;20028;-67
2022/06/24 10:59:07;;;;;;;9.23;8.25;;;23.10;76.60;;;;;;5115014;28;20030;-67
2022/06/24 11:01:33;;;;;;;10.40;8.70;;;23.10;76.20;;;;;;5114869;28;20076;-67
2022/06/24 11:04:05;;;;;;;11.32;9.63;;;23.20;76.60;;;;;;5114715;28;20070;-67
2022/06/24 11:06:31;;;;;;;;;;;23.20;74.30;;;;;;5115169;28;20025;-67
2022/06/24 11:09:07;;;;;;;11.32;8.80;;;23.30;73.40;;;;;;5114618;28;19934;-67
2022/06/24 11:11:34;;;;;;;10.80;7.72;;;23.20;72.20;;;;;;5114649;28;20075;-67
2022/06/24 11:14:00;;;;;;;9.55;7.50;;;23.10;73.10;;;;;;5114581;28;20039;-67
2022/06/24 11:16:28;;;;;;;8.77;7.88;;;23.10;73.00;;;;;;5096529;28;20044;-67
2022/06/24 11:18:54;;;;;;;13.25;8.40;;;23.00;73.70;;;;;;5114519;28;20047;-67
2022/06/24 11:21:20;;;;;;;15.82;12.07;;;22.90;75.00;;;;;;5114466;28;20028;-69
2022/06/24 11:23:48;;;;;;;16.25;11.20;;;22.40;76.70;;;;;;5114456;28;20032;-69
2022/06/24 11:26:20;;;;;;;9.48;6.30;;;22.00;78.40;;;;;;5114565;28;20027;-69
2022/06/24 11:28:51;;;;;;;8.45;5.28;;;21.60;78.00;;;;;;5114098;28;20119;-70
2022/06/24 11:31:33;;;;;;;8.30;5.20;;;21.20;78.00;;;;;;5114359;28;20027;-70
2022/06/24 11:33:58;;;;;;;9.60;5.32;;;21.00;79.60;;;;;;5114325;28;20479;-71
2022/06/24 11:36:26;;;;;;;7.15;5.10;;;20.90;79.90;;;;;;5114206;28;20026;-70
2022/06/24 11:39:02;;;;;;;7.70;4.95;;;20.90;80.60;;;;;;5114168;28;20024;-71
2022/06/24 11:41:30;;;;;;;6.75;4.85;;;21.10;81.70;;;;;;5114076;28;20036;-70
2022/06/24 11:43:56;;;;;;;5.30;4.80;;;21.10;81.20;;;;;;5114099;28;20092;-70
2022/06/24 11:46:22;;;;;;;10.68;5.18;;;21.20;81.40;;;;;;5114025;28;20028;-70
2022/06/24 11:48:48;;;;;;;5.82;4.88;;;21.20;81.20;;;;;;5113968;28;20123;-70
2022/06/24 11:51:21;;;;;;;5.60;5.00;;;21.30;81.60;;;;;;5113983;28;20024;-70
2022/06/24 11:54:04;;;;;;;7.32;4.93;;;21.40;82.20;;;;;;5113965;28;20032;-70
2022/06/24 11:56:31;;;;;;;;;;;21.60;82.80;;;;;;5096363;28;20024;-70
2022/06/24 11:58:58;;;;;;;7.15;4.50;;;21.70;82.60;;;;;;5113987;28;19904;-70
2022/06/24 12:01:25;;;;;;;5.25;3.33;;;21.80;82.00;;;;;;5113837;28;20024;-70
2022/06/24 12:03:53;;;;;;;5.40;4.47;;;21.70;78.80;;;;;;5113535;28;20023;-70
2022/06/24 12:06:20;;;;;;;6.57;5.35;;;21.70;79.40;;;;;;5113416;28;20063;-70
2022/06/24 12:08:47;;;;;;;7.97;6.07;;;21.80;80.70;;;;;;5113662;28;20016;-70
2022/06/24 12:11:18;;;;;;;8.40;6.68;;;21.90;81.50;;;;;;5113689;28;20372;-70
2022/06/24 12:13:58;;;;;;;9.40;7.43;;;21.90;80.20;;;;;;5113679;28;20379;-68
2022/06/24 12:16:28;;;;;;;9.45;7.40;;;22.00;81.10;;;;;;5113779;28;20070;-67
2022/06/24 12:18:54;;;;;;;10.40;7.88;;;22.10;81.60;;;;;;5113609;28;20048;-68
2022/06/24 12:21:25;;;;;;;9.82;8.52;;;22.30;81.30;;;;;;5113534;28;20031;-67
2022/06/24 12:23:51;;;;;;;9.98;8.02;;;22.50;79.80;;;;;;5113637;28;20027;-68
2022/06/24 12:26:22;;;;;;;8.20;7.35;;;22.50;78.90;;;;;;5113466;28;20028;-68
2022/06/24 12:29:04;;;;;;;7.90;7.07;;;22.50;78.30;;;;;;5113189;28;20036;-68
2022/06/24 12:31:32;;;;;;;6.82;3.80;;;22.50;78.70;;;;;;5113506;28;20246;-68
2022/06/24 12:33:58;;;;;;;4.32;3.78;;;22.40;77.20;;;;;;5113437;28;20047;-67
2022/06/24 12:36:35;;;;;;;4.93;3.38;;;22.40;75.70;;;;;;5113430;28;20023;-68
2022/06/24 12:39:06;;;;;;;3.47;2.90;;;22.40;74.20;;;;;;5113388;28;20056;-67
2022/06/24 12:41:46;;;;;;;4.15;3.40;;;22.40;72.10;;;;;;5113377;28;20025;-67
2022/06/24 12:44:13;;;;;;;3.53;2.40;;;22.40;77.00;;;;;;5113350;28;20024;-67
2022/06/24 12:50:34;;;;;;;2.80;2.60;;;22.30;74.80;;;;;;5113326;28;20035;-67
2022/06/24 12:52:39;;;;;;;5.28;2.50;;;22.50;75.70;;;;;;5113527;28;20066;-67
2022/06/24 12:55:10;;;;;;;3.38;2.30;;;22.70;76.70;;;;;;5113261;28;20054;-67